sensor_id;sensor_type;location;lat;lon;timestamp;pressure;altitude;pressure_sealevel;temperature
67966;BMP280;54749;47.850;9.002;2023-04-03T00:00:56;96390.81;;;4.72
67966;BMP280;54749;47.850;9.002;2023-04-03T00:03:24;96406.94;;;4.67
67966;BMP280;54749;47.850;9.002;2023-04-03T00:05:51;96390.63;;;4.59
67966;BMP280;54749;47.850;9.002;2023-04-03T00:08:18;96398.44;;;4.53
67966;BMP280;54749;47.850;9.002;2023-04-03T00:10:46;96396.00;;;4.52
67966;BMP280;54749;47.850;9.002;2023-04-03T00:13:14;96404.38;;;4.51
67966;BMP280;54749;47.850;9.002;2023-04-03T00:15:42;96397.84;;;4.48
67966;BMP280;54749;47.850;9.002;2023-04-03T00:18:09;96413.25;;;4.39
67966;BMP280;54749;47.850;9.002;2023-04-03T00:20:37;96403.31;;;4.38
67966;BMP280;54749;47.850;9.002;2023-04-03T00:23:05;96421.78;;;4.36
67966;BMP280;54749;47.850;9.002;2023-04-03T00:25:32;96403.88;;;4.26
67966;BMP280;54749;47.850;9.002;2023-04-03T00:28:00;96400.59;;;4.24
67966;BMP280;54749;47.850;9.002;2023-04-03T00:30:28;96401.91;;;4.15
67966;BMP280;54749;47.850;9.002;2023-04-03T00:32:54;96386.22;;;4.11
67966;BMP280;54749;47.850;9.002;2023-04-03T00:35:23;96399.53;;;4.12
67966;BMP280;54749;47.850;9.002;2023-04-03T00:37:52;96400.53;;;4.08
67966;BMP280;54749;47.850;9.002;2023-04-03T00:40:23;96403.94;;;4.07
67966;BMP280;54749;47.850;9.002;2023-04-03T00:42:57;96394.72;;;4.07
67966;BMP280;54749;47.850;9.002;2023-04-03T00:45:35;96400.63;;;4.06
67966;BMP280;54749;47.850;9.002;2023-04-03T00:48:05;96394.19;;;4.01
67966;BMP280;54749;47.850;9.002;2023-04-03T00:50:37;96398.34;;;4.02
67966;BMP280;54749;47.850;9.002;2023-04-03T00:53:06;96405.22;;;3.97
67966;BMP280;54749;47.850;9.002;2023-04-03T00:55:35;96393.63;;;3.95
67966;BMP280;54749;47.850;9.002;2023-04-03T00:58:04;96388.72;;;3.93
67966;BMP280;54749;47.850;9.002;2023-04-03T01:00:37;96388.72;;;3.93
67966;BMP280;54749;47.850;9.002;2023-04-03T01:03:05;96385.47;;;3.91
67966;BMP280;54749;47.850;9.002;2023-04-03T01:05:34;96388.03;;;3.90
67966;BMP280;54749;47.850;9.002;2023-04-03T01:08:02;96396.63;;;3.84
67966;BMP280;54749;47.850;9.002;2023-04-03T01:10:30;96384.94;;;3.85
67966;BMP280;54749;47.850;9.002;2023-04-03T01:12:59;96375.66;;;3.87
67966;BMP280;54749;47.850;9.002;2023-04-03T01:15:27;96385.72;;;3.85
67966;BMP280;54749;47.850;9.002;2023-04-03T01:18:01;96375.72;;;3.85
67966;BMP280;54749;47.850;9.002;2023-04-03T01:25:44;96388.97;;;3.87
67966;BMP280;54749;47.850;9.002;2023-04-03T01:28:16;96368.22;;;3.85
67966;BMP280;54749;47.850;9.002;2023-04-03T01:30:56;96385.00;;;3.84
67966;BMP280;54749;47.850;9.002;2023-04-03T01:33:27;96382.44;;;3.85
67966;BMP280;54749;47.850;9.002;2023-04-03T01:35:54;96392.34;;;3.86
67966;BMP280;54749;47.850;9.002;2023-04-03T01:38:22;96397.34;;;3.86
67966;BMP280;54749;47.850;9.002;2023-04-03T01:40:49;96398.22;;;3.85
67966;BMP280;54749;47.850;9.002;2023-04-03T01:43:16;96394.03;;;3.86
67966;BMP280;54749;47.850;9.002;2023-04-03T01:45:44;96388.16;;;3.87
67966;BMP280;54749;47.850;9.002;2023-04-03T01:48:11;96377.44;;;3.85
67966;BMP280;54749;47.850;9.002;2023-04-03T01:50:39;96382.63;;;3.81
67966;BMP280;54749;47.850;9.002;2023-04-03T01:53:06;96391.00;;;3.80
67966;BMP280;54749;47.850;9.002;2023-04-03T01:55:33;96400.53;;;3.72
67966;BMP280;54749;47.850;9.002;2023-04-03T01:58:01;96371.41;;;3.71
67966;BMP280;54749;47.850;9.002;2023-04-03T02:00:28;96394.13;;;3.65
67966;BMP280;54749;47.850;9.002;2023-04-03T02:02:55;96398.50;;;3.60
67966;BMP280;54749;47.850;9.002;2023-04-03T02:05:25;96384.63;;;3.55
67966;BMP280;54749;47.850;9.002;2023-04-03T02:07:52;96383.03;;;3.52
67966;BMP280;54749;47.850;9.002;2023-04-03T02:10:19;96374.06;;;3.49
67966;BMP280;54749;47.850;9.002;2023-04-03T02:12:46;96376.75;;;3.44
67966;BMP280;54749;47.850;9.002;2023-04-03T02:15:14;96381.69;;;3.46
67966;BMP280;54749;47.850;9.002;2023-04-03T02:17:41;96364.31;;;3.43
67966;BMP280;54749;47.850;9.002;2023-04-03T02:20:09;96367.75;;;3.40
67966;BMP280;54749;47.850;9.002;2023-04-03T02:22:36;96368.50;;;3.42
67966;BMP280;54749;47.850;9.002;2023-04-03T02:25:04;96372.13;;;3.35
67966;BMP280;54749;47.850;9.002;2023-04-03T02:27:31;96361.47;;;3.32
67966;BMP280;54749;47.850;9.002;2023-04-03T02:29:59;96369.69;;;3.34
67966;BMP280;54749;47.850;9.002;2023-04-03T02:32:26;96373.28;;;3.29
67966;BMP280;54749;47.850;9.002;2023-04-03T02:34:53;96390.75;;;3.29
67966;BMP280;54749;47.850;9.002;2023-04-03T02:37:21;96393.31;;;3.27
67966;BMP280;54749;47.850;9.002;2023-04-03T02:39:50;96366.69;;;3.26
67966;BMP280;54749;47.850;9.002;2023-04-03T02:42:17;96390.81;;;3.27
67966;BMP280;54749;47.850;9.002;2023-04-03T02:44:44;96403.28;;;3.27
67966;BMP280;54749;47.850;9.002;2023-04-03T02:47:11;96382.56;;;3.25
67966;BMP280;54749;47.850;9.002;2023-04-03T02:49:39;96400.84;;;3.26
67966;BMP280;54749;47.850;9.002;2023-04-03T02:52:06;96397.53;;;3.25
67966;BMP280;54749;47.850;9.002;2023-04-03T02:54:33;96405.03;;;3.25
67966;BMP280;54749;47.850;9.002;2023-04-03T02:57:03;96422.63;;;3.22
67966;BMP280;54749;47.850;9.002;2023-04-03T02:59:31;96411.88;;;3.20
67966;BMP280;54749;47.850;9.002;2023-04-03T03:01:58;96417.78;;;3.19
67966;BMP280;54749;47.850;9.002;2023-04-03T03:04:26;96406.16;;;3.18
67966;BMP280;54749;47.850;9.002;2023-04-03T03:06:53;96420.50;;;3.14
67966;BMP280;54749;47.850;9.002;2023-04-03T03:09:20;96429.00;;;3.10
67966;BMP280;54749;47.850;9.002;2023-04-03T03:11:47;96423.31;;;3.06
67966;BMP280;54749;47.850;9.002;2023-04-03T03:14:14;96418.44;;;3.03
67966;BMP280;54749;47.850;9.002;2023-04-03T03:16:41;96415.19;;;3.01
67966;BMP280;54749;47.850;9.002;2023-04-03T03:19:09;96431.09;;;2.99
67966;BMP280;54749;47.850;9.002;2023-04-03T03:21:36;96426.22;;;2.96
67966;BMP280;54749;47.850;9.002;2023-04-03T03:24:04;96436.22;;;2.96
67966;BMP280;54749;47.850;9.002;2023-04-03T03:26:32;96429.59;;;2.95
67966;BMP280;54749;47.850;9.002;2023-04-03T03:29:02;96424.59;;;2.95
67966;BMP280;54749;47.850;9.002;2023-04-03T03:31:29;96430.34;;;2.97
67966;BMP280;54749;47.850;9.002;2023-04-03T03:33:57;96421.91;;;2.99
67966;BMP280;54749;47.850;9.002;2023-04-03T03:36:24;96436.09;;;2.99
67966;BMP280;54749;47.850;9.002;2023-04-03T03:38:51;96420.25;;;3.00
67966;BMP280;54749;47.850;9.002;2023-04-03T03:41:18;96422.75;;;3.00
67966;BMP280;54749;47.850;9.002;2023-04-03T03:43:46;96428.53;;;3.00
67966;BMP280;54749;47.850;9.002;2023-04-03T03:46:15;96428.69;;;2.97
67966;BMP280;54749;47.850;9.002;2023-04-03T03:48:42;96435.31;;;2.98
67966;BMP280;54749;47.850;9.002;2023-04-03T03:51:10;96428.69;;;2.97
67966;BMP280;54749;47.850;9.002;2023-04-03T03:53:38;96430.31;;;2.98
67966;BMP280;54749;47.850;9.002;2023-04-03T03:56:09;96429.38;;;3.01
67966;BMP280;54749;47.850;9.002;2023-04-03T03:58:38;96423.50;;;3.02
67966;BMP280;54749;47.850;9.002;2023-04-03T04:01:07;96452.13;;;2.94
67966;BMP280;54749;47.850;9.002;2023-04-03T04:03:43;96461.34;;;2.92
67966;BMP280;54749;47.850;9.002;2023-04-03T04:06:13;96444.69;;;2.92
67966;BMP280;54749;47.850;9.002;2023-04-03T04:08:41;96446.31;;;2.93
67966;BMP280;54749;47.850;9.002;2023-04-03T04:11:10;96451.31;;;2.93
67966;BMP280;54749;47.850;9.002;2023-04-03T04:13:38;96450.81;;;2.85
67966;BMP280;54749;47.850;9.002;2023-04-03T04:16:07;96442.59;;;2.82
67966;BMP280;54749;47.850;9.002;2023-04-03T04:18:34;96452.75;;;2.78
67966;BMP280;54749;47.850;9.002;2023-04-03T04:21:01;96457.81;;;2.76
67966;BMP280;54749;47.850;9.002;2023-04-03T04:23:29;96453.75;;;2.74
67966;BMP280;54749;47.850;9.002;2023-04-03T04:25:58;96457.09;;;2.73
67966;BMP280;54749;47.850;9.002;2023-04-03T04:28:27;96462.34;;;2.67
67966;BMP280;54749;47.850;9.002;2023-04-03T04:30:57;96460.06;;;2.61
67966;BMP280;54749;47.850;9.002;2023-04-03T04:33:26;96459.44;;;2.56
67966;BMP280;54749;47.850;9.002;2023-04-03T04:35:54;96456.06;;;2.57
67966;BMP280;54749;47.850;9.002;2023-04-03T04:38:22;96457.81;;;2.55
67966;BMP280;54749;47.850;9.002;2023-04-03T04:40:51;96468.72;;;2.53
67966;BMP280;54749;47.850;9.002;2023-04-03T04:43:20;96459.44;;;2.56
67966;BMP280;54749;47.850;9.002;2023-04-03T04:46:00;96464.41;;;2.56
67966;BMP280;54749;47.850;9.002;2023-04-03T04:48:28;96461.06;;;2.57
67966;BMP280;54749;47.850;9.002;2023-04-03T04:50:58;96464.53;;;2.53
67966;BMP280;54749;47.850;9.002;2023-04-03T04:53:26;96468.59;;;2.56
67966;BMP280;54749;47.850;9.002;2023-04-03T04:55:53;96458.59;;;2.56
67966;BMP280;54749;47.850;9.002;2023-04-03T04:58:21;96471.84;;;2.58
67966;BMP280;54749;47.850;9.002;2023-04-03T05:00:49;96479.28;;;2.59
67966;BMP280;54749;47.850;9.002;2023-04-03T05:03:17;96459.25;;;2.61
67966;BMP280;54749;47.850;9.002;2023-04-03T05:05:44;96485.09;;;2.60
67966;BMP280;54749;47.850;9.002;2023-04-03T05:08:12;96484.28;;;2.59
67966;BMP280;54749;47.850;9.002;2023-04-03T05:10:41;96472.53;;;2.61
67966;BMP280;54749;47.850;9.002;2023-04-03T05:13:10;96479.16;;;2.62
67966;BMP280;54749;47.850;9.002;2023-04-03T05:15:38;96471.63;;;2.63
67966;BMP280;54749;47.850;9.002;2023-04-03T05:18:06;96484.09;;;2.63
67966;BMP280;54749;47.850;9.002;2023-04-03T05:20:33;96485.66;;;2.66
67966;BMP280;54749;47.850;9.002;2023-04-03T05:23:01;96489.66;;;2.70
67966;BMP280;54749;47.850;9.002;2023-04-03T05:25:29;96484.63;;;2.71
67966;BMP280;54749;47.850;9.002;2023-04-03T05:27:57;96492.84;;;2.73
67966;BMP280;54749;47.850;9.002;2023-04-03T05:30:24;96486.25;;;2.72
67966;BMP280;54749;47.850;9.002;2023-04-03T05:32:52;96493.66;;;2.74
67966;BMP280;54749;47.850;9.002;2023-04-03T05:35:32;96484.38;;;2.77
67966;BMP280;54749;47.850;9.002;2023-04-03T05:38:02;96488.50;;;2.78
67966;BMP280;54749;47.850;9.002;2023-04-03T05:40:30;96492.59;;;2.80
67966;BMP280;54749;47.850;9.002;2023-04-03T05:42:58;96490.09;;;2.80
67966;BMP280;54749;47.850;9.002;2023-04-03T05:45:28;96479.97;;;2.83
67966;BMP280;54749;47.850;9.002;2023-04-03T05:47:57;96483.47;;;2.79
67966;BMP280;54749;47.850;9.002;2023-04-03T05:50:24;96486.69;;;2.81
67966;BMP280;54749;47.850;9.002;2023-04-03T05:52:57;96489.09;;;2.84
67966;BMP280;54749;47.850;9.002;2023-04-03T05:55:27;96494.75;;;2.89
67966;BMP280;54749;47.850;9.002;2023-04-03T05:57:54;96493.09;;;2.88
67966;BMP280;54749;47.850;9.002;2023-04-03T06:00:21;96492.88;;;2.94
67966;BMP280;54749;47.850;9.002;2023-04-03T06:02:58;96493.44;;;3.00
67966;BMP280;54749;47.850;9.002;2023-04-03T06:05:27;96497.56;;;3.01
67966;BMP280;54749;47.850;9.002;2023-04-03T06:07:54;96487.41;;;3.06
67966;BMP280;54749;47.850;9.002;2023-04-03T06:10:22;96489.75;;;3.10
67966;BMP280;54749;47.850;9.002;2023-04-03T06:12:50;96497.69;;;3.19
67966;BMP280;54749;47.850;9.002;2023-04-03T06:15:18;96494.19;;;3.23
67966;BMP280;54749;47.850;9.002;2023-04-03T06:17:45;96495.75;;;3.26
67966;BMP280;54749;47.850;9.002;2023-04-03T06:20:12;96492.16;;;3.32
67966;BMP280;54749;47.850;9.002;2023-04-03T06:22:40;96499.47;;;3.37
67966;BMP280;54749;47.850;9.002;2023-04-03T06:25:10;96487.72;;;3.39
67966;BMP280;54749;47.850;9.002;2023-04-03T06:27:38;96493.34;;;3.44
67966;BMP280;54749;47.850;9.002;2023-04-03T06:30:06;96490.88;;;3.42
67966;BMP280;54749;47.850;9.002;2023-04-03T06:32:34;96483.97;;;3.49
67966;BMP280;54749;47.850;9.002;2023-04-03T06:35:02;96490.91;;;3.62
67966;BMP280;54749;47.850;9.002;2023-04-03T06:37:29;96488.09;;;3.69
67966;BMP280;54749;47.850;9.002;2023-04-03T06:39:57;96512.16;;;3.71
67966;BMP280;54749;47.850;9.002;2023-04-03T06:42:24;96481.22;;;3.74
67966;BMP280;54749;47.850;9.002;2023-04-03T06:45:03;96497.38;;;3.67
67966;BMP280;54749;47.850;9.002;2023-04-03T06:47:30;96490.16;;;3.60
67966;BMP280;54749;47.850;9.002;2023-04-03T06:49:57;96505.59;;;3.69
67966;BMP280;54749;47.850;9.002;2023-04-03T06:52:25;96497.19;;;3.71
67966;BMP280;54749;47.850;9.002;2023-04-03T06:54:53;96514.72;;;3.70
67966;BMP280;54749;47.850;9.002;2023-04-03T06:57:24;96492.47;;;3.84
67966;BMP280;54749;47.850;9.002;2023-04-03T06:59:51;96502.34;;;3.86
67966;BMP280;54749;47.850;9.002;2023-04-03T07:02:19;96496.41;;;3.89
67966;BMP280;54749;47.850;9.002;2023-04-03T07:04:47;96500.22;;;3.97
67966;BMP280;54749;47.850;9.002;2023-04-03T07:07:15;96499.47;;;3.95
67966;BMP280;54749;47.850;9.002;2023-04-03T07:09:44;96503.34;;;4.02
67966;BMP280;54749;47.850;9.002;2023-04-03T07:12:11;96501.47;;;4.07
67966;BMP280;54749;47.850;9.002;2023-04-03T07:14:39;96499.50;;;4.13
67966;BMP280;54749;47.850;9.002;2023-04-03T07:17:06;96496.91;;;4.34
67966;BMP280;54749;47.850;9.002;2023-04-03T07:19:33;96492.38;;;4.42
67966;BMP280;54749;47.850;9.002;2023-04-03T07:22:01;96502.31;;;4.43
67966;BMP280;54749;47.850;9.002;2023-04-03T07:24:28;96499.16;;;4.40
67966;BMP280;54749;47.850;9.002;2023-04-03T07:26:56;96507.53;;;4.39
67966;BMP280;54749;47.850;9.002;2023-04-03T07:29:23;96518.28;;;4.41
67966;BMP280;54749;47.850;9.002;2023-04-03T07:31:51;96497.31;;;4.61
67966;BMP280;54749;47.850;9.002;2023-04-03T07:34:18;96491.56;;;4.77
67966;BMP280;54749;47.850;9.002;2023-04-03T07:36:46;96502.38;;;4.96
67966;BMP280;54749;47.850;9.002;2023-04-03T07:39:14;96512.94;;;4.84
67966;BMP280;54749;47.850;9.002;2023-04-03T07:41:42;96518.69;;;4.86
67966;BMP280;54749;47.850;9.002;2023-04-03T07:44:09;96505.44;;;4.66
67966;BMP280;54749;47.850;9.002;2023-04-03T07:46:39;96512.28;;;4.63
67966;BMP280;54749;47.850;9.002;2023-04-03T07:49:07;96518.28;;;4.77
67966;BMP280;54749;47.850;9.002;2023-04-03T07:51:36;96514.50;;;4.87
67966;BMP280;54749;47.850;9.002;2023-04-03T07:54:03;96516.13;;;5.06
67966;BMP280;54749;47.850;9.002;2023-04-03T07:56:31;96512.44;;;5.12
67966;BMP280;54749;47.850;9.002;2023-04-03T07:58:58;96516.81;;;5.25
67966;BMP280;54749;47.850;9.002;2023-04-03T08:01:26;96514.41;;;5.41
67966;BMP280;54749;47.850;9.002;2023-04-03T08:03:53;96521.03;;;5.41
67966;BMP280;54749;47.850;9.002;2023-04-03T08:06:20;96523.63;;;5.57
67966;BMP280;54749;47.850;9.002;2023-04-03T08:09:07;96515.97;;;5.59
67966;BMP280;54749;47.850;9.002;2023-04-03T08:11:35;96531.50;;;5.84
67966;BMP280;54749;47.850;9.002;2023-04-03T08:14:03;96522.66;;;5.59
67966;BMP280;54749;47.850;9.002;2023-04-03T08:16:30;96507.25;;;5.84
67966;BMP280;54749;47.850;9.002;2023-04-03T08:18:57;96520.72;;;5.98
67966;BMP280;54749;47.850;9.002;2023-04-03T08:21:25;96516.25;;;6.20
67966;BMP280;54749;47.850;9.002;2023-04-03T08:23:52;96516.56;;;6.46
67966;BMP280;54749;47.850;9.002;2023-04-03T08:26:21;96523.84;;;6.35
67966;BMP280;54749;47.850;9.002;2023-04-03T08:28:48;96515.84;;;6.59
67966;BMP280;54749;47.850;9.002;2023-04-03T08:31:18;96505.03;;;6.73
67966;BMP280;54749;47.850;9.002;2023-04-03T08:33:46;96505.38;;;6.82
67966;BMP280;54749;47.850;9.002;2023-04-03T08:36:26;96506.63;;;6.44
67966;BMP280;54749;47.850;9.002;2023-04-03T08:38:54;96521.00;;;6.41
67966;BMP280;54749;47.850;9.002;2023-04-03T08:41:42;96527.09;;;6.20
67966;BMP280;54749;47.850;9.002;2023-04-03T08:49:37;96535.34;;;5.74
67966;BMP280;54749;47.850;9.002;2023-04-03T08:52:12;96517.59;;;5.60
67966;BMP280;54749;47.850;9.002;2023-04-03T08:54:53;96525.88;;;5.62
67966;BMP280;54749;47.850;9.002;2023-04-03T08:57:30;96516.78;;;5.60
67966;BMP280;54749;47.850;9.002;2023-04-03T09:00:03;96527.41;;;5.48
67966;BMP280;54749;47.850;9.002;2023-04-03T09:02:35;96536.44;;;5.51
67966;BMP280;54749;47.850;9.002;2023-04-03T09:05:20;96541.22;;;5.73
67966;BMP280;54749;47.850;9.002;2023-04-03T09:07:58;96541.22;;;5.90
67966;BMP280;54749;47.850;9.002;2023-04-03T09:10:29;96516.84;;;6.56
67966;BMP280;54749;47.850;9.002;2023-04-03T09:15:31;96532.50;;;6.76
67966;BMP280;54749;47.850;9.002;2023-04-03T09:18:14;96492.41;;;6.90
67966;BMP280;54749;47.850;9.002;2023-04-03T09:23:52;96531.59;;;7.37
67966;BMP280;54749;47.850;9.002;2023-04-03T09:26:31;96546.00;;;7.05
67966;BMP280;54749;47.850;9.002;2023-04-03T09:29:05;96533.91;;;6.97
67966;BMP280;54749;47.850;9.002;2023-04-03T09:31:38;96541.09;;;7.02
67966;BMP280;54749;47.850;9.002;2023-04-03T09:34:34;96543.72;;;7.16
67966;BMP280;54749;47.850;9.002;2023-04-03T09:37:03;96533.81;;;6.83
67966;BMP280;54749;47.850;9.002;2023-04-03T09:39:50;96523.69;;;6.99
67966;BMP280;54749;47.850;9.002;2023-04-03T09:42:25;96527.53;;;6.60
67966;BMP280;54749;47.850;9.002;2023-04-03T09:45:00;96524.44;;;6.55
67966;BMP280;54749;47.850;9.002;2023-04-03T09:47:35;96534.00;;;6.64
67966;BMP280;54749;47.850;9.002;2023-04-03T09:52:41;96531.44;;;6.80
67966;BMP280;54749;47.850;9.002;2023-04-03T09:55:20;96541.13;;;6.87
67966;BMP280;54749;47.850;9.002;2023-04-03T09:58:01;96535.06;;;6.60
67966;BMP280;54749;47.850;9.002;2023-04-03T10:00:37;96537.03;;;6.38
67966;BMP280;54749;47.850;9.002;2023-04-03T10:03:05;96540.84;;;6.45
67966;BMP280;54749;47.850;9.002;2023-04-03T10:05:48;96540.84;;;6.45
67966;BMP280;54749;47.850;9.002;2023-04-03T10:10:47;96525.44;;;6.52
67966;BMP280;54749;47.850;9.002;2023-04-03T10:13:17;96533.94;;;6.80
67966;BMP280;54749;47.850;9.002;2023-04-03T10:16:01;96524.63;;;6.67
67966;BMP280;54749;47.850;9.002;2023-04-03T10:18:44;96530.97;;;6.89
67966;BMP280;54749;47.850;9.002;2023-04-03T10:21:28;96520.09;;;6.88
67966;BMP280;54749;47.850;9.002;2023-04-03T10:24:21;96532.13;;;6.83
67966;BMP280;54749;47.850;9.002;2023-04-03T10:27:02;96533.81;;;6.98
67966;BMP280;54749;47.850;9.002;2023-04-03T10:40:52;96525.75;;;6.62
67966;BMP280;54749;47.850;9.002;2023-04-03T10:43:33;96529.97;;;6.61
67966;BMP280;54749;47.850;9.002;2023-04-03T10:54:04;96532.00;;;6.23
67966;BMP280;54749;47.850;9.002;2023-04-03T10:56:47;96519.69;;;6.19
67966;BMP280;54749;47.850;9.002;2023-04-03T11:02:01;96523.41;;;6.27
67966;BMP280;54749;47.850;9.002;2023-04-03T11:04:31;96513.41;;;6.42
67966;BMP280;54749;47.850;9.002;2023-04-03T11:07:07;96510.19;;;6.40
67966;BMP280;54749;47.850;9.002;2023-04-03T11:09:37;96505.06;;;6.42
67966;BMP280;54749;47.850;9.002;2023-04-03T11:12:28;96512.56;;;6.27
67966;BMP280;54749;47.850;9.002;2023-04-03T11:15:02;96521.13;;;6.23
67966;BMP280;54749;47.850;9.002;2023-04-03T11:17:43;96511.53;;;6.30
67966;BMP280;54749;47.850;9.002;2023-04-03T11:20:24;96511.81;;;6.25
67966;BMP280;54749;47.850;9.002;2023-04-03T11:23:00;96510.00;;;6.43
67966;BMP280;54749;47.850;9.002;2023-04-03T11:25:32;96517.94;;;6.36
67966;BMP280;54749;47.850;9.002;2023-04-03T11:28:04;96509.53;;;6.52
67966;BMP280;54749;47.850;9.002;2023-04-03T11:35:52;96508.75;;;6.82
67966;BMP280;54749;47.850;9.002;2023-04-03T11:38:27;96498.53;;;6.54
67966;BMP280;54749;47.850;9.002;2023-04-03T11:40:57;96487.13;;;6.49
67966;BMP280;54749;47.850;9.002;2023-04-03T11:43:27;96499.66;;;6.49
67966;BMP280;54749;47.850;9.002;2023-04-03T11:46:04;96497.47;;;6.58
67966;BMP280;54749;47.850;9.002;2023-04-03T11:54:48;96492.72;;;7.14
67966;BMP280;54749;47.850;9.002;2023-04-03T11:57:44;96488.44;;;7.01
67966;BMP280;54749;47.850;9.002;2023-04-03T12:05:50;96498.66;;;6.83
67966;BMP280;54749;47.850;9.002;2023-04-03T12:16:21;96490.81;;;7.90
67966;BMP280;54749;47.850;9.002;2023-04-03T12:21:21;96459.53;;;7.80
67966;BMP280;54749;47.850;9.002;2023-04-03T12:26:50;96475.69;;;7.76
67966;BMP280;54749;47.850;9.002;2023-04-03T12:35:05;96474.06;;;7.75
67966;BMP280;54749;47.850;9.002;2023-04-03T12:37:46;96462.53;;;7.58
67966;BMP280;54749;47.850;9.002;2023-04-03T12:40:34;96463.38;;;7.72
67966;BMP280;54749;47.850;9.002;2023-04-03T12:51:19;96479.16;;;7.01
67966;BMP280;54749;47.850;9.002;2023-04-03T12:53:47;96471.81;;;6.68
67966;BMP280;54749;47.850;9.002;2023-04-03T12:56:27;96480.22;;;6.67
67966;BMP280;54749;47.850;9.002;2023-04-03T12:59:15;96486.72;;;6.71
67966;BMP280;54749;47.850;9.002;2023-04-03T13:01:43;96482.50;;;6.57
67966;BMP280;54749;47.850;9.002;2023-04-03T13:04:11;96478.94;;;6.61
67966;BMP280;54749;47.850;9.002;2023-04-03T13:06:41;96475.72;;;6.74
67966;BMP280;54749;47.850;9.002;2023-04-03T13:09:27;96483.34;;;6.87
67966;BMP280;54749;47.850;9.002;2023-04-03T13:12:11;96486.63;;;7.18
67966;BMP280;54749;47.850;9.002;2023-04-03T13:14:39;96475.03;;;7.31
67966;BMP280;54749;47.850;9.002;2023-04-03T13:17:14;96469.53;;;7.09
67966;BMP280;54749;47.850;9.002;2023-04-03T13:19:43;96473.25;;;7.02
67966;BMP280;54749;47.850;9.002;2023-04-03T13:25:02;96483.81;;;6.94
67966;BMP280;54749;47.850;9.002;2023-04-03T13:27:32;96468.91;;;6.91
67966;BMP280;54749;47.850;9.002;2023-04-03T13:30:01;96471.81;;;6.83
67966;BMP280;54749;47.850;9.002;2023-04-03T13:32:30;96471.16;;;6.65
67966;BMP280;54749;47.850;9.002;2023-04-03T13:34:59;96471.72;;;6.55
67966;BMP280;54749;47.850;9.002;2023-04-03T13:37:54;96472.47;;;6.57
67966;BMP280;54749;47.850;9.002;2023-04-03T13:40:22;96471.56;;;6.58
67966;BMP280;54749;47.850;9.002;2023-04-03T13:43:19;96492.69;;;6.54
67966;BMP280;54749;47.850;9.002;2023-04-03T13:48:42;96476.50;;;6.44
67966;BMP280;54749;47.850;9.002;2023-04-03T13:51:34;96467.16;;;6.46
67966;BMP280;54749;47.850;9.002;2023-04-03T13:54:01;96464.03;;;6.58
67966;BMP280;54749;47.850;9.002;2023-04-03T13:56:38;96480.09;;;6.70
67966;BMP280;54749;47.850;9.002;2023-04-03T14:01:47;96463.00;;;6.62
67966;BMP280;54749;47.850;9.002;2023-04-03T14:04:24;96456.44;;;6.74
67966;BMP280;54749;47.850;9.002;2023-04-03T14:06:52;96470.53;;;6.62
67966;BMP280;54749;47.850;9.002;2023-04-03T14:09:21;96465.81;;;6.56
67966;BMP280;54749;47.850;9.002;2023-04-03T14:11:49;96483.44;;;6.54
67966;BMP280;54749;47.850;9.002;2023-04-03T14:14:20;96468.31;;;6.56
67966;BMP280;54749;47.850;9.002;2023-04-03T14:16:53;96464.84;;;6.73
67966;BMP280;54749;47.850;9.002;2023-04-03T14:19:24;96463.78;;;6.77
67966;BMP280;54749;47.850;9.002;2023-04-03T14:21:53;96454.06;;;6.86
67966;BMP280;54749;47.850;9.002;2023-04-03T14:24:22;96457.06;;;6.93
67966;BMP280;54749;47.850;9.002;2023-04-03T14:26:51;96447.00;;;7.08
67966;BMP280;54749;47.850;9.002;2023-04-03T14:29:20;96454.59;;;7.06
67966;BMP280;54749;47.850;9.002;2023-04-03T14:31:49;96449.75;;;7.03
67966;BMP280;54749;47.850;9.002;2023-04-03T14:34:29;96440.88;;;6.83
67966;BMP280;54749;47.850;9.002;2023-04-03T14:36:57;96448.22;;;6.86
67966;BMP280;54749;47.850;9.002;2023-04-03T14:39:24;96437.75;;;7.08
67966;BMP280;54749;47.850;9.002;2023-04-03T14:41:51;96436.00;;;7.24
67966;BMP280;54749;47.850;9.002;2023-04-03T14:44:18;96438.84;;;7.33
67966;BMP280;54749;47.850;9.002;2023-04-03T14:46:45;96416.81;;;7.23
67966;BMP280;54749;47.850;9.002;2023-04-03T14:49:27;96445.75;;;7.30
67966;BMP280;54749;47.850;9.002;2023-04-03T14:51:57;96429.59;;;7.34
67966;BMP280;54749;47.850;9.002;2023-04-03T14:54:24;96430.78;;;7.42
67966;BMP280;54749;47.850;9.002;2023-04-03T14:56:58;96452.13;;;6.91
67966;BMP280;54749;47.850;9.002;2023-04-03T14:59:26;96442.06;;;6.76
67966;BMP280;54749;47.850;9.002;2023-04-03T15:01:53;96430.44;;;6.75
67966;BMP280;54749;47.850;9.002;2023-04-03T15:04:21;96444.66;;;6.60
67966;BMP280;54749;47.850;9.002;2023-04-03T15:06:49;96443.84;;;6.44
67966;BMP280;54749;47.850;9.002;2023-04-03T15:09:25;96457.34;;;6.42
67966;BMP280;54749;47.850;9.002;2023-04-03T15:11:54;96457.34;;;6.27
67966;BMP280;54749;47.850;9.002;2023-04-03T15:14:22;96434.34;;;6.34
67966;BMP280;54749;47.850;9.002;2023-04-03T15:17:04;96453.63;;;6.33
67966;BMP280;54749;47.850;9.002;2023-04-03T15:19:41;96446.03;;;6.50
67966;BMP280;54749;47.850;9.002;2023-04-03T15:22:16;96444.44;;;6.64
67966;BMP280;54749;47.850;9.002;2023-04-03T15:24:44;96450.75;;;6.71
67966;BMP280;54749;47.850;9.002;2023-04-03T15:27:11;96446.13;;;6.64
67966;BMP280;54749;47.850;9.002;2023-04-03T15:29:40;96463.53;;;6.51
67966;BMP280;54749;47.850;9.002;2023-04-03T15:32:08;96454.47;;;6.49
67966;BMP280;54749;47.850;9.002;2023-04-03T15:34:36;96451.38;;;6.44
67966;BMP280;54749;47.850;9.002;2023-04-03T15:37:04;96449.94;;;6.40
67966;BMP280;54749;47.850;9.002;2023-04-03T15:39:32;96458.75;;;6.47
67966;BMP280;54749;47.850;9.002;2023-04-03T15:41:58;96450.00;;;6.54
67966;BMP280;54749;47.850;9.002;2023-04-03T15:44:34;96454.47;;;6.49
67966;BMP280;54749;47.850;9.002;2023-04-03T15:47:02;96454.72;;;6.13
67966;BMP280;54749;47.850;9.002;2023-04-03T15:49:32;96441.75;;;6.05
67966;BMP280;54749;47.850;9.002;2023-04-03T15:51:59;96451.81;;;6.05
67966;BMP280;54749;47.850;9.002;2023-04-03T15:54:27;96460.38;;;6.01
67966;BMP280;54749;47.850;9.002;2023-04-03T15:56:56;96452.16;;;5.98
67966;BMP280;54749;47.850;9.002;2023-04-03T15:59:24;96457.19;;;5.98
67966;BMP280;54749;47.850;9.002;2023-04-03T16:01:51;96459.69;;;5.98
67966;BMP280;54749;47.850;9.002;2023-04-03T16:04:19;96467.78;;;5.88
67966;BMP280;54749;47.850;9.002;2023-04-03T16:06:48;96453.06;;;5.97
67966;BMP280;54749;47.850;9.002;2023-04-03T16:09:15;96449.22;;;5.90
67966;BMP280;54749;47.850;9.002;2023-04-03T16:11:42;96455.47;;;5.98
67966;BMP280;54749;47.850;9.002;2023-04-03T16:14:10;96452.84;;;5.85
67966;BMP280;54749;47.850;9.002;2023-04-03T16:16:37;96464.66;;;5.83